createdAt,value
2023-04-09T00:03:16.869Z,1.58
2023-04-09T00:08:19.007Z,1.42
2023-04-09T00:13:31.884Z,1.29
2023-04-09T00:18:42.001Z,1.16
2023-04-09T00:23:43.851Z,1.09
2023-04-09T00:28:46.316Z,1.24
2023-04-09T00:33:49.491Z,1.04
2023-04-09T00:38:51.901Z,0.87
2023-04-09T00:43:56.102Z,0.70
2023-04-09T00:48:59.365Z,0.70
2023-04-09T00:54:01.594Z,0.61
2023-04-09T00:59:03.732Z,0.75
2023-04-09T01:04:07.598Z,0.63
2023-04-09T01:09:18.141Z,0.81
2023-04-09T01:14:30.362Z,0.68
2023-04-09T01:19:43.826Z,0.57
2023-04-09T01:25:00.621Z,0.23
2023-04-09T01:30:04.999Z,0.50
2023-04-09T01:35:08.619Z,0.26
2023-04-09T01:40:11.238Z,0.04
2023-04-09T01:45:15.994Z,-0.03
2023-04-09T01:50:18.144Z,0.21
2023-04-09T01:55:19.988Z,0.10
2023-04-09T02:00:24.666Z,0.06
2023-04-09T02:05:31.986Z,-0.14
2023-04-09T02:10:35.946Z,-0.36
2023-04-09T02:15:40.642Z,-0.51
2023-04-09T02:20:43.105Z,-0.51
2023-04-09T02:25:45.358Z,-0.66
2023-04-09T02:30:49.173Z,-0.78
2023-04-09T02:35:51.134Z,-0.75
2023-04-09T02:40:53.129Z,-0.77
2023-04-09T02:45:59.220Z,-0.84
2023-04-09T02:51:02.058Z,-0.76
2023-04-09T02:56:05.171Z,-0.93
2023-04-09T03:01:08.406Z,-0.92
2023-04-09T03:06:10.573Z,-0.75
2023-04-09T03:11:12.635Z,-0.96
2023-04-09T03:16:16.221Z,-1.04
2023-04-09T03:21:18.387Z,-1.07
2023-04-09T03:26:20.173Z,-1.04
2023-04-09T03:31:23.941Z,-0.95
2023-04-09T03:36:26.239Z,-0.91
2023-04-09T03:41:28.220Z,-1.21
2023-04-09T03:46:31.374Z,-1.28
2023-04-09T03:51:35.916Z,-1.23
2023-04-09T03:56:38.120Z,-1.22
2023-04-09T04:01:41.608Z,-1.10
2023-04-09T04:06:43.696Z,-1.09
2023-04-09T04:11:45.910Z,-1.23
2023-04-09T04:16:49.637Z,-1.39
2023-04-09T04:21:51.808Z,-1.43
2023-04-09T04:26:54.017Z,-1.17
2023-04-09T04:31:58.138Z,-1.17
2023-04-09T04:36:59.896Z,-1.11
2023-04-09T04:42:02.117Z,-1.21
2023-04-09T04:47:05.641Z,-1.12
2023-04-09T04:52:08.155Z,-1.03
2023-04-09T04:57:10.399Z,-1.05
2023-04-09T05:02:13.960Z,-1.01
2023-04-09T05:07:15.760Z,-0.92
2023-04-09T05:12:17.996Z,-0.71
2023-04-09T05:17:21.645Z,-0.52
2023-04-09T05:22:24.498Z,-0.36
2023-04-09T05:27:26.576Z,-0.24
2023-04-09T05:32:30.250Z,1.42
2023-04-09T05:37:33.028Z,2.57
2023-04-09T05:42:35.110Z,4.23
2023-04-09T05:47:38.796Z,5.20
2023-04-09T05:52:41.150Z,6.33
2023-04-09T05:57:43.318Z,7.45
2023-04-09T06:02:49.788Z,8.02
2023-04-09T06:07:51.876Z,6.95
2023-04-09T06:12:54.055Z,5.78
2023-04-09T06:17:59.399Z,5.02
2023-04-09T06:23:01.689Z,4.94
2023-04-09T06:28:03.989Z,4.82
2023-04-09T06:33:07.765Z,3.96
2023-04-09T06:38:09.932Z,3.76
2023-04-09T06:43:11.646Z,3.80
2023-04-09T06:48:14.773Z,3.89
2023-04-09T06:53:16.840Z,4.24
2023-04-09T06:58:18.570Z,4.38
2023-04-09T07:03:24.180Z,4.89
2023-04-09T07:08:27.296Z,5.31
2023-04-09T07:13:29.469Z,5.45
2023-04-09T07:18:32.654Z,5.40
2023-04-09T07:23:35.368Z,5.58
2023-04-09T07:28:37.299Z,5.60
2023-04-09T07:33:41.266Z,5.87
2023-04-09T07:38:43.661Z,6.09
2023-04-09T07:43:45.369Z,5.80
2023-04-09T07:48:48.599Z,5.96
2023-04-09T07:53:50.395Z,5.81
2023-04-09T07:58:52.490Z,5.78
2023-04-09T08:03:56.472Z,5.91
2023-04-09T08:08:58.807Z,6.11
2023-04-09T08:14:03.641Z,6.09
2023-04-09T08:19:06.785Z,6.02
2023-04-09T08:24:08.790Z,6.06
2023-04-09T08:29:12.416Z,6.43
2023-04-09T08:34:15.718Z,6.41
2023-04-09T08:39:18.056Z,6.21
2023-04-09T08:44:20.424Z,6.60
2023-04-09T08:49:23.938Z,6.56
2023-04-09T08:54:29.103Z,7.03
2023-04-09T08:59:30.891Z,7.21
2023-04-09T09:04:44.369Z,7.56
2023-04-09T09:09:53.587Z,7.92
2023-04-09T09:14:55.625Z,8.24
2023-04-09T09:19:58.913Z,8.97
2023-04-09T09:25:00.669Z,12.94
2023-04-09T09:30:03.637Z,15.79
2023-04-09T09:35:07.845Z,17.14
2023-04-09T09:40:11.219Z,18.22
2023-04-09T09:45:18.216Z,17.66
2023-04-09T09:50:24.017Z,18.45
2023-04-09T09:55:29.555Z,16.63
2023-04-09T10:00:32.895Z,17.28
2023-04-09T10:05:38.963Z,19.17
2023-04-09T10:10:41.560Z,18.80
2023-04-09T10:15:44.394Z,19.40
2023-04-09T10:20:54.879Z,20.41
2023-04-09T10:25:56.759Z,20.70
2023-04-09T10:30:59.481Z,21.36
2023-04-09T10:36:05.932Z,20.84
2023-04-09T10:41:13.784Z,18.78
2023-04-09T10:46:29.822Z,19.72
2023-04-09T10:51:36.612Z,19.33
2023-04-09T10:56:38.386Z,19.19
2023-04-09T11:01:52.550Z,16.52
2023-04-09T11:06:56.410Z,16.79
2023-04-09T11:11:58.179Z,14.93
2023-04-09T11:16:59.934Z,14.82
2023-04-09T11:22:05.641Z,15.30
2023-04-09T11:27:07.424Z,14.93
2023-04-09T11:32:09.221Z,14.76
2023-04-09T11:37:16.207Z,14.15
2023-04-09T11:42:18.521Z,14.68
2023-04-09T11:47:21.713Z,14.71
2023-04-09T11:52:24.967Z,14.82
2023-04-09T11:57:42.967Z,15.43
2023-04-09T12:02:46.507Z,15.24
2023-04-09T12:07:56.420Z,15.09
2023-04-09T12:13:02.787Z,14.75
2023-04-09T12:18:08.724Z,15.26
2023-04-09T12:23:13.518Z,14.95
2023-04-09T12:28:16.133Z,14.87
2023-04-09T12:33:18.091Z,14.78
2023-04-09T12:38:21.656Z,14.98
2023-04-09T12:43:23.711Z,15.39
2023-04-09T12:48:25.485Z,15.90
2023-04-09T12:53:29.098Z,14.91
2023-04-09T12:58:31.306Z,15.22
2023-04-09T13:03:33.531Z,16.13
2023-04-09T13:08:36.697Z,15.81
2023-04-09T13:13:39.406Z,15.56
2023-04-09T13:18:42.629Z,14.95
2023-04-09T13:23:46.029Z,15.16
2023-04-09T13:28:47.845Z,15.58
2023-04-09T13:33:49.997Z,15.29
2023-04-09T13:38:53.928Z,15.62
2023-04-09T13:43:56.031Z,15.27
2023-04-09T13:48:57.836Z,15.97
2023-04-09T13:54:01.202Z,14.69
2023-04-09T13:59:03.432Z,14.90
2023-04-09T14:04:05.306Z,15.61
2023-04-09T14:09:08.658Z,15.60
2023-04-09T14:14:10.458Z,15.10
2023-04-09T14:19:12.399Z,15.86
2023-04-09T14:24:15.468Z,15.10
2023-04-09T14:29:17.266Z,15.55
2023-04-09T14:34:18.998Z,15.54
2023-04-09T14:39:22.410Z,15.57
2023-04-09T14:44:24.241Z,15.54
2023-04-09T14:49:26.108Z,15.14
2023-04-09T14:54:29.379Z,15.44
2023-04-09T14:59:31.146Z,15.85
2023-04-09T15:04:33.416Z,15.84
2023-04-09T15:09:36.564Z,15.83
2023-04-09T15:14:38.291Z,16.18
2023-04-09T15:19:40.099Z,15.83
2023-04-09T15:24:43.549Z,15.72
2023-04-09T15:29:45.396Z,16.11
2023-04-09T15:34:47.142Z,16.12
2023-04-09T15:39:50.453Z,16.01
2023-04-09T15:44:52.275Z,15.43
2023-04-09T15:49:54.064Z,15.07
2023-04-09T15:54:57.598Z,14.89
2023-04-09T15:59:59.288Z,15.10
2023-04-09T16:05:01.169Z,15.29
2023-04-09T16:10:05.009Z,15.26
2023-04-09T16:15:08.268Z,15.27
2023-04-09T16:20:10.268Z,14.61
2023-04-09T16:25:13.390Z,14.50
2023-04-09T16:30:15.164Z,14.30
2023-04-09T16:35:17.041Z,14.53
2023-04-09T16:40:21.240Z,14.21
2023-04-09T16:45:23.152Z,14.21
2023-04-09T16:50:24.916Z,13.73
2023-04-09T16:55:28.108Z,13.53
2023-04-09T17:00:29.832Z,13.36
2023-04-09T17:05:31.641Z,13.22
2023-04-09T17:10:36.730Z,13.33
2023-04-09T17:15:38.576Z,12.98
2023-04-09T17:20:40.362Z,12.80
2023-04-09T17:25:44.145Z,12.53
2023-04-09T17:30:45.980Z,12.23
2023-04-09T17:35:51.326Z,12.18
2023-04-09T17:40:57.224Z,11.94
2023-04-09T17:46:01.965Z,11.54
2023-04-09T17:51:04.574Z,11.17
2023-04-09T17:56:08.905Z,10.87
2023-04-09T18:01:11.642Z,10.59
2023-04-09T18:06:13.437Z,10.44
2023-04-09T18:11:16.611Z,10.75
2023-04-09T18:16:18.367Z,10.78
2023-04-09T18:21:20.056Z,10.54
2023-04-09T18:26:23.236Z,10.15
2023-04-09T18:31:25.082Z,10.21
2023-04-09T18:36:26.973Z,10.09
2023-04-09T18:41:30.295Z,9.75
2023-04-09T18:46:32.056Z,9.20
2023-04-09T18:51:33.984Z,8.76
2023-04-09T18:56:37.171Z,8.39
2023-04-09T19:01:39.463Z,8.21
2023-04-09T19:06:41.283Z,8.01
2023-04-09T19:11:44.554Z,7.79
2023-04-09T19:16:46.758Z,7.91
2023-04-09T19:21:48.669Z,7.64
2023-04-09T19:26:52.131Z,7.25
2023-04-09T19:31:53.972Z,7.12
2023-04-09T19:36:55.857Z,6.87
2023-04-09T19:41:59.227Z,6.66
2023-04-09T19:47:01.126Z,6.52
2023-04-09T19:52:03.320Z,6.46
2023-04-09T19:57:06.576Z,6.32
2023-04-09T20:02:08.764Z,6.12
2023-04-09T20:07:10.797Z,5.87
2023-04-09T20:12:14.104Z,5.82
2023-04-09T20:17:15.860Z,5.55
2023-04-09T20:22:17.664Z,5.47
2023-04-09T20:27:20.730Z,5.32
2023-04-09T20:32:22.536Z,5.36
2023-04-09T20:37:24.379Z,5.27
2023-04-09T20:42:27.901Z,5.10
2023-04-09T20:47:30.260Z,5.01
2023-04-09T20:52:32.079Z,4.98
2023-04-09T20:57:35.488Z,4.76
2023-04-09T21:02:38.897Z,4.66
2023-04-09T21:07:41.027Z,4.55
2023-04-09T21:12:44.202Z,4.33
2023-04-09T21:17:46.319Z,4.31
2023-04-09T21:22:48.483Z,4.34
2023-04-09T21:27:51.961Z,4.23
2023-04-09T21:32:54.417Z,4.14
2023-04-09T21:37:56.796Z,4.03
2023-04-09T21:43:00.434Z,3.92
2023-04-09T21:48:02.172Z,3.78
2023-04-09T21:53:04.340Z,3.82
2023-04-09T21:58:07.462Z,3.79
2023-04-09T22:03:09.362Z,3.58
2023-04-09T22:08:11.444Z,3.66
2023-04-09T22:13:15.008Z,3.66
2023-04-09T22:18:17.098Z,3.35
2023-04-09T22:23:19.878Z,3.24
2023-04-09T22:28:22.998Z,3.24
2023-04-09T22:33:25.738Z,3.13
2023-04-09T22:38:27.754Z,3.14
2023-04-09T22:43:31.491Z,3.02
2023-04-09T22:48:35.869Z,3.02
2023-04-09T22:53:43.615Z,2.75
2023-04-09T22:58:46.893Z,2.76
2023-04-09T23:03:50.058Z,2.71
2023-04-09T23:08:52.055Z,2.63
2023-04-09T23:13:55.670Z,2.49
2023-04-09T23:18:57.461Z,2.57
2023-04-09T23:23:59.651Z,2.42
2023-04-09T23:29:03.094Z,2.28
2023-04-09T23:34:05.424Z,2.32
2023-04-09T23:39:07.499Z,2.16
2023-04-09T23:44:11.203Z,2.20
2023-04-09T23:49:13.778Z,2.17
2023-04-09T23:54:15.721Z,2.08
2023-04-09T23:59:19.433Z,2.12
